Time;durP1;ratioP1;P1;durP2;ratioP2;P2;SDS_P1;SDS_P2;PMS_P1;PMS_P2;Temp;Humidity;BMP_temperature;BMP_pressure;BME280_temperature;BME280_humidity;BME280_pressure;Samples;Min_cycle;Max_cycle;Signal;HPM_P1;HPM_P2
2021/06/23 00:00:23;;;;;;;6.83;3.50;;;13.70;99.50;;;;;;4901272;29;20920;-75
2021/06/23 00:29:17;;;;;;;5.73;3.07;;;13.70;99.80;;;;;;3296190;26;20514;-66
2021/06/23 00:31:45;;;;;;;5.23;3.13;;;13.70;99.80;;;;;;4937012;29;20421;-66
2021/06/23 00:34:17;;;;;;;3.87;3.13;;;13.70;99.80;;;;;;4937110;29;20507;-66
2021/06/23 00:36:45;;;;;;;5.57;3.40;;;13.70;99.90;;;;;;4935896;29;20796;-66
2021/06/23 00:39:13;;;;;;;8.30;3.17;;;13.80;99.90;;;;;;4936675;29;21069;-66
2021/06/23 00:41:41;;;;;;;5.83;3.83;;;13.80;99.90;;;;;;4936723;29;20443;-66
2021/06/23 00:44:09;;;;;;;5.20;3.17;;;13.80;99.90;;;;;;4919490;29;20505;-66
2021/06/23 00:46:39;;;;;;;6.78;3.80;;;13.70;99.90;;;;;;4918357;29;20427;-66
2021/06/23 00:49:08;;;;;;;4.63;3.17;;;13.80;99.90;;;;;;4935877;29;20300;-66
2021/06/23 00:52:09;;;;;;;7.87;3.70;;;13.80;99.90;;;;;;4920979;29;20819;-66
2021/06/23 00:54:49;;;;;;;7.13;3.10;;;13.80;99.90;;;;;;4919269;29;20434;-66
2021/06/23 00:57:21;;;;;;;5.23;4.40;;;13.70;99.90;;;;;;4919809;29;20492;-66
2021/06/23 00:59:51;;;;;;;6.07;3.90;;;13.70;99.90;;;;;;4918271;29;20895;-67
2021/06/23 01:02:21;;;;;;;4.63;3.97;;;13.70;99.90;;;;;;4919096;29;20965;-66
2021/06/23 01:04:51;;;;;;;3.30;3.00;;;13.70;99.90;;;;;;4919030;29;20454;-66
2021/06/23 01:07:21;;;;;;;5.00;2.83;;;13.70;99.90;;;;;;4918723;29;20444;-66
2021/06/23 01:09:56;;;;;;;3.90;3.50;;;13.70;99.90;;;;;;4931851;29;20542;-66
2021/06/23 01:12:44;;;;;;;5.50;3.50;;;13.70;99.90;;;;;;4936181;29;20448;-66
2021/06/23 01:15:14;;;;;;;5.23;3.50;;;13.70;99.90;;;;;;4936106;29;20439;-66
2021/06/23 01:17:46;;;;;;;6.73;3.47;;;13.70;99.90;;;;;;4936325;29;20456;-66
2021/06/23 01:20:15;;;;;;;7.37;4.20;;;13.70;99.90;;;;;;4935867;29;20466;-66
2021/06/23 01:22:46;;;;;;;5.20;4.00;;;13.70;99.90;;;;;;4918861;29;20458;-66
2021/06/23 01:25:16;;;;;;;5.20;3.47;;;13.70;99.90;;;;;;4918699;29;20556;-66
2021/06/23 01:27:46;;;;;;;8.27;4.37;;;13.70;99.90;;;;;;4935820;29;20527;-66
2021/06/23 01:30:16;;;;;;;7.70;4.63;;;13.60;99.90;;;;;;4918711;29;20499;-66
2021/06/23 01:33:09;;;;;;;6.03;3.73;;;13.60;99.90;;;;;;4934076;29;20468;-66
2021/06/23 01:35:38;;;;;;;5.60;3.93;;;13.60;99.90;;;;;;4936295;29;20459;-66
2021/06/23 01:38:07;;;;;;;6.03;3.43;;;13.60;99.90;;;;;;4918718;29;20456;-66
2021/06/23 01:40:35;;;;;;;4.90;3.60;;;13.60;99.90;;;;;;4935654;29;20973;-66
2021/06/23 01:43:04;;;;;;;7.03;3.33;;;13.60;99.90;;;;;;4918625;29;20460;-67
2021/06/23 01:45:33;;;;;;;5.72;4.10;;;13.60;99.90;;;;;;4935741;29;20453;-66
2021/06/23 01:48:01;;;;;;;6.30;4.23;;;13.60;99.90;;;;;;4919221;29;20216;-66
2021/06/23 01:50:29;;;;;;;7.90;4.10;;;13.60;99.90;;;;;;4918811;29;20555;-66
2021/06/23 01:53:01;;;;;;;9.20;4.07;;;13.60;99.90;;;;;;4918899;29;20494;-66
2021/06/23 01:55:31;;;;;;;7.70;4.10;;;13.60;99.90;;;;;;4918443;29;20449;-66
2021/06/23 01:58:06;;;;;;;6.83;3.73;;;13.60;99.90;;;;;;4936072;29;20184;-66
2021/06/23 02:00:53;;;;;;;5.27;3.40;;;13.60;99.90;;;;;;4918654;29;20476;-66
2021/06/23 02:03:47;;;;;;;7.23;3.20;;;13.60;99.90;;;;;;4919771;29;20451;-66
2021/06/23 02:06:40;;;;;;;7.73;3.67;;;13.60;99.90;;;;;;4935743;29;20526;-66
2021/06/23 02:09:22;;;;;;;5.77;3.77;;;13.60;99.90;;;;;;4918189;29;20483;-66
2021/06/23 02:12:21;;;;;;;6.03;3.80;;;13.60;99.90;;;;;;4921581;29;20455;-67
2021/06/23 02:14:52;;;;;;;4.33;3.93;;;13.60;99.90;;;;;;4922356;29;20495;-67
2021/06/23 02:17:31;;;;;;;9.10;4.40;;;13.60;99.90;;;;;;4922303;29;20491;-67
2021/06/23 02:20:18;;;;;;;7.77;3.80;;;13.60;99.90;;;;;;4922955;29;20475;-67
2021/06/23 02:22:48;;;;;;;9.90;4.03;;;13.60;99.90;;;;;;4922251;29;20496;-67
2021/06/23 02:25:23;;;;;;;5.53;3.70;;;13.60;99.90;;;;;;4922376;29;20993;-67
2021/06/23 02:28:02;;;;;;;9.50;3.77;;;13.60;99.90;;;;;;4921623;29;20518;-67
2021/06/23 02:30:30;;;;;;;5.00;3.90;;;13.60;99.90;;;;;;4921841;29;20479;-66
2021/06/23 02:33:02;;;;;;;6.87;3.50;;;13.60;99.90;;;;;;4939380;29;20498;-67
2021/06/23 02:35:39;;;;;;;4.13;3.10;;;13.60;99.90;;;;;;4922024;29;20530;-67
2021/06/23 02:38:30;;;;;;;6.17;3.73;;;13.70;99.90;;;;;;4938650;29;20456;-67
2021/06/23 02:41:01;;;;;;;5.37;3.63;;;13.60;99.90;;;;;;4921954;29;20503;-66
2021/06/23 02:43:31;;;;;;;6.60;3.73;;;13.60;99.90;;;;;;4922392;29;20451;-67
2021/06/23 02:46:08;;;;;;;7.43;4.00;;;13.60;99.90;;;;;;4922236;29;20552;-66
2021/06/23 02:48:36;;;;;;;6.93;3.97;;;13.70;99.90;;;;;;4938763;29;20439;-68
2021/06/23 02:51:19;;;;;;;6.80;4.13;;;13.70;99.90;;;;;;4938459;29;20470;-68
2021/06/23 02:53:53;;;;;;;6.80;4.17;;;13.60;99.90;;;;;;4939078;29;20432;-68
2021/06/23 02:56:25;;;;;;;9.33;4.40;;;13.70;99.90;;;;;;4921668;29;20483;-67
2021/06/23 02:58:56;;;;;;;7.10;4.72;;;13.70;99.90;;;;;;4938196;29;20449;-67
2021/06/23 03:01:24;;;;;;;6.10;4.13;;;13.70;99.90;;;;;;4921480;29;20204;-67
2021/06/23 03:03:55;;;;;;;6.10;4.00;;;13.80;99.90;;;;;;4922331;29;20483;-67
2021/06/23 03:06:30;;;;;;;5.30;4.60;;;13.70;99.90;;;;;;4918111;29;20566;-67
2021/06/23 03:09:02;;;;;;;8.45;4.70;;;13.70;99.90;;;;;;4917762;29;20491;-67
2021/06/23 03:11:50;;;;;;;5.27;4.23;;;13.80;99.90;;;;;;4919934;29;20687;-68
2021/06/23 03:14:34;;;;;;;6.87;5.13;;;13.80;99.90;;;;;;4934266;29;20831;-67
2021/06/23 03:17:02;;;;;;;4.93;4.43;;;13.80;99.90;;;;;;4936880;29;20499;-67
2021/06/23 03:19:31;;;;;;;6.00;4.30;;;13.80;99.90;;;;;;4920934;29;20562;-68
2021/06/23 03:22:04;;;;;;;6.00;4.70;;;13.80;99.90;;;;;;4920758;29;20511;-67
2021/06/23 03:24:32;;;;;;;7.37;4.60;;;13.80;99.90;;;;;;4937367;29;20549;-68
2021/06/23 03:27:06;;;;;;;7.63;4.60;;;13.70;99.90;;;;;;4920758;29;20523;-68
2021/06/23 03:29:36;;;;;;;7.03;4.63;;;13.70;99.90;;;;;;4920798;29;20479;-68
2021/06/23 03:32:07;;;;;;;8.63;4.80;;;13.70;99.90;;;;;;4938212;29;20844;-67
2021/06/23 03:34:38;;;;;;;8.00;5.10;;;13.70;99.90;;;;;;4937822;29;20542;-67
2021/06/23 03:37:08;;;;;;;7.60;5.07;;;13.70;99.90;;;;;;4920670;29;20419;-68
2021/06/23 03:39:41;;;;;;;7.27;4.10;;;13.80;99.90;;;;;;4937964;29;20868;-67
2021/06/23 03:42:10;;;;;;;4.70;4.00;;;13.70;99.90;;;;;;4938042;29;20570;-67
2021/06/23 03:44:42;;;;;;;6.13;5.50;;;13.70;99.90;;;;;;4937683;29;20995;-67
2021/06/23 03:47:14;;;;;;;9.40;5.43;;;13.70;99.90;;;;;;4920560;29;20499;-67
2021/06/23 03:49:43;;;;;;;7.90;5.30;;;13.70;99.90;;;;;;4920301;29;20847;-67
2021/06/23 03:52:12;;;;;;;10.60;6.10;;;13.70;99.90;;;;;;4937605;29;20451;-68
2021/06/23 03:54:40;;;;;;;9.07;5.13;;;13.70;99.90;;;;;;4937198;29;20466;-67
2021/06/23 03:57:09;;;;;;;7.67;5.70;;;13.70;99.90;;;;;;4937335;29;20527;-68
2021/06/23 03:59:38;;;;;;;7.10;4.63;;;13.70;99.90;;;;;;4920224;29;20523;-67
2021/06/23 04:02:08;;;;;;;5.20;4.70;;;13.70;99.90;;;;;;4920606;29;20459;-68
2021/06/23 04:04:36;;;;;;;6.43;5.57;;;13.70;99.90;;;;;;4937480;29;20875;-68
2021/06/23 04:07:24;;;;;;;9.43;4.83;;;13.70;99.90;;;;;;4920476;29;20450;-67
2021/06/23 04:09:52;;;;;;;7.10;5.40;;;13.70;99.90;;;;;;4919998;29;20563;-67
2021/06/23 04:12:30;;;;;;;8.73;4.90;;;13.70;99.90;;;;;;4919131;29;20466;-67
2021/06/23 04:14:59;;;;;;;8.33;5.03;;;13.80;99.90;;;;;;4920181;29;20206;-68
2021/06/23 04:17:28;;;;;;;6.53;5.03;;;13.80;99.90;;;;;;4920096;29;20451;-67
2021/06/23 04:19:57;;;;;;;6.97;5.33;;;13.80;99.90;;;;;;4936943;29;20838;-67
2021/06/23 04:22:39;;;;;;;5.87;4.70;;;13.80;99.90;;;;;;4920217;29;20528;-68
2021/06/23 04:25:13;;;;;;;6.63;5.27;;;13.80;99.90;;;;;;4937302;29;20406;-67
2021/06/23 04:27:42;;;;;;;6.43;4.80;;;13.80;99.90;;;;;;4936531;29;20983;-68
2021/06/23 04:30:12;;;;;;;6.90;4.30;;;13.80;99.90;;;;;;4919988;29;20850;-67
2021/06/23 04:32:42;;;;;;;5.90;5.20;;;13.80;99.90;;;;;;4919968;29;20456;-67
2021/06/23 04:35:30;;;;;;;7.77;6.27;;;13.90;99.90;;;;;;4929699;29;20824;-67
2021/06/23 04:38:00;;;;;;;8.30;5.00;;;13.90;99.90;;;;;;4919734;29;20893;-67
2021/06/23 04:40:28;;;;;;;8.40;5.20;;;13.90;99.90;;;;;;4936766;29;20463;-67
2021/06/23 04:42:59;;;;;;;7.43;4.97;;;13.90;99.90;;;;;;4919778;29;20993;-67
2021/06/23 04:45:28;;;;;;;8.00;5.80;;;13.90;99.90;;;;;;4936842;29;20942;-67
2021/06/23 04:48:02;;;;;;;8.73;4.53;;;14.00;99.90;;;;;;4919530;29;20503;-67
2021/06/23 04:50:34;;;;;;;5.97;4.60;;;14.00;99.90;;;;;;4919250;29;20491;-67
2021/06/23 04:53:09;;;;;;;4.90;4.50;;;14.00;99.90;;;;;;4936350;29;20414;-68
2021/06/23 04:55:39;;;;;;;5.77;5.10;;;14.00;99.90;;;;;;4919484;29;20422;-68
2021/06/23 04:58:11;;;;;;;6.83;5.50;;;14.00;99.90;;;;;;4919845;29;20480;-68
2021/06/23 05:00:39;;;;;;;9.93;5.47;;;14.00;99.90;;;;;;4918649;29;20507;-67
2021/06/23 05:03:16;;;;;;;8.50;5.37;;;14.00;99.90;;;;;;4919280;29;20455;-68
2021/06/23 05:05:44;;;;;;;8.80;6.00;;;14.00;99.90;;;;;;4934649;29;20439;-68
2021/06/23 05:08:12;;;;;;;7.60;5.67;;;14.00;99.90;;;;;;4935776;29;20488;-68
2021/06/23 05:10:40;;;;;;;6.77;6.10;;;14.10;99.90;;;;;;4919140;29;21018;-68
2021/06/23 05:13:10;;;;;;;10.97;4.87;;;14.10;99.90;;;;;;4936247;29;20436;-68
2021/06/23 05:15:38;;;;;;;8.87;5.50;;;14.10;99.90;;;;;;4936473;29;20527;-68
2021/06/23 05:18:07;;;;;;;10.23;5.13;;;14.10;99.90;;;;;;4936277;29;20449;-67
2021/06/23 05:20:36;;;;;;;9.40;5.10;;;14.10;99.90;;;;;;4936054;29;21006;-67
2021/06/23 05:23:04;;;;;;;10.23;5.10;;;14.20;99.90;;;;;;4936687;29;20457;-67
2021/06/23 05:25:33;;;;;;;8.55;6.20;;;14.20;99.90;;;;;;4935251;29;20540;-67
2021/06/23 05:28:01;;;;;;;12.03;5.67;;;14.30;99.90;;;;;;4935921;29;20212;-67
2021/06/23 05:30:29;;;;;;;9.00;5.50;;;14.40;99.90;;;;;;4918953;29;20482;-67
2021/06/23 05:32:57;;;;;;;11.07;5.60;;;14.50;99.90;;;;;;4936297;29;20444;-67
2021/06/23 05:35:25;;;;;;;7.40;5.60;;;14.60;99.90;;;;;;4935504;29;20449;-67
2021/06/23 05:37:57;;;;;;;5.60;5.10;;;14.70;99.90;;;;;;4936293;29;20180;-67
2021/06/23 05:40:25;;;;;;;9.20;5.90;;;14.90;99.90;;;;;;4936586;29;20551;-67
2021/06/23 05:42:54;;;;;;;6.33;5.10;;;15.00;99.90;;;;;;4919071;29;20806;-67
2021/06/23 05:45:22;;;;;;;7.03;4.93;;;15.30;99.90;;;;;;4935745;29;20414;-68
2021/06/23 05:47:55;;;;;;;9.50;5.53;;;15.50;99.90;;;;;;4935906;29;20873;-68
2021/06/23 05:50:23;;;;;;;9.40;5.30;;;15.80;99.90;;;;;;4918651;29;20531;-68
2021/06/23 05:52:52;;;;;;;9.30;5.10;;;16.00;99.90;;;;;;4935857;29;20506;-68
2021/06/23 05:55:22;;;;;;;7.80;4.60;;;16.20;99.90;;;;;;4918695;29;20462;-68
2021/06/23 05:57:52;;;;;;;9.43;4.40;;;16.40;99.90;;;;;;4935803;29;20531;-68
2021/06/23 06:00:21;;;;;;;9.20;4.60;;;16.60;99.90;;;;;;4935894;29;20559;-68
2021/06/23 06:02:51;;;;;;;4.20;3.80;;;16.90;99.90;;;;;;4918661;29;20453;-68
2021/06/23 06:05:20;;;;;;;5.87;4.63;;;17.20;99.90;;;;;;4935341;29;20438;-69
2021/06/23 06:07:49;;;;;;;6.67;4.37;;;17.50;99.90;;;;;;4918407;29;20518;-68
2021/06/23 06:10:17;;;;;;;6.67;4.03;;;17.70;99.90;;;;;;4935552;29;20981;-68
2021/06/23 07:02:16;;;;;;;9.63;7.10;;;18.10;99.90;;;;;;4793941;29;20956;-76
2021/06/23 07:04:45;;;;;;;10.57;6.50;;;18.20;99.90;;;;;;4816922;29;20464;-76
2021/06/23 07:07:13;;;;;;;8.80;6.40;;;18.30;99.90;;;;;;4824413;29;20977;-76
2021/06/23 07:09:41;;;;;;;7.07;6.37;;;18.30;99.90;;;;;;4824451;29;20483;-76
2021/06/23 07:12:11;;;;;;;7.67;6.97;;;18.30;99.90;;;;;;4809462;29;20456;-76
2021/06/23 07:14:39;;;;;;;8.37;6.50;;;18.20;99.90;;;;;;4809327;29;20460;-76
2021/06/23 07:17:07;;;;;;;8.23;5.00;;;18.10;99.90;;;;;;4824576;29;20570;-76
2021/06/23 07:19:37;;;;;;;9.63;6.77;;;18.00;99.90;;;;;;4824217;29;20481;-76
2021/06/23 07:22:05;;;;;;;13.80;7.60;;;18.00;99.90;;;;;;4824306;29;20552;-76
2021/06/23 07:24:33;;;;;;;11.07;7.10;;;18.00;99.90;;;;;;4824659;29;20531;-77
2021/06/23 07:27:01;;;;;;;6.57;5.57;;;17.90;99.90;;;;;;4824136;29;20488;-76
2021/06/23 07:29:30;;;;;;;8.53;7.00;;;17.90;99.90;;;;;;4808999;29;20517;-76
2021/06/23 07:32:01;;;;;;;8.40;6.40;;;17.90;99.90;;;;;;4824100;29;20490;-76
2021/06/23 07:37:25;;;;;;;8.43;6.27;;;17.80;99.90;;;;;;4917643;29;20460;-76
2021/06/23 07:39:53;;;;;;;9.10;6.93;;;17.80;99.90;;;;;;4917667;29;20534;-76
2021/06/23 07:42:21;;;;;;;10.53;7.37;;;17.90;99.90;;;;;;4917630;29;20875;-76
2021/06/23 07:44:54;;;;;;;13.07;7.83;;;17.80;99.90;;;;;;4901976;29;20495;-76
2021/06/23 07:47:24;;;;;;;9.00;6.97;;;17.90;99.90;;;;;;4901897;29;20470;-76
2021/06/23 07:49:53;;;;;;;7.10;5.77;;;17.80;99.90;;;;;;4919088;29;20474;-76
2021/06/23 07:52:27;;;;;;;12.47;6.63;;;17.80;99.90;;;;;;4901799;29;20456;-76
2021/06/23 08:09:01;;;;;;;11.10;6.20;;;18.20;99.90;;;;;;4920071;29;20475;-78
2021/06/23 08:11:34;;;;;;;6.23;4.40;;;18.20;99.90;;;;;;4920492;29;20463;-78
2021/06/23 08:14:04;;;;;;;7.70;5.00;;;18.20;99.90;;;;;;4905676;29;21008;-79
2021/06/23 08:16:33;;;;;;;8.80;5.20;;;18.20;99.90;;;;;;4921585;29;21019;-79
2021/06/23 08:19:04;;;;;;;5.40;4.60;;;18.20;99.90;;;;;;4920810;29;20497;-78
2021/06/23 08:21:32;;;;;;;9.50;5.83;;;18.20;99.90;;;;;;4921577;29;20920;-79
2021/06/23 08:24:00;;;;;;;5.90;5.30;;;18.20;99.90;;;;;;4921902;29;20491;-79
2021/06/23 08:26:30;;;;;;;5.70;4.80;;;18.20;99.90;;;;;;4920652;29;20455;-79
2021/06/23 08:28:58;;;;;;;6.83;5.00;;;18.30;99.90;;;;;;4904030;29;20530;-78
2021/06/23 08:31:26;;;;;;;10.60;5.57;;;18.20;99.90;;;;;;4920375;29;20456;-79
2021/06/23 08:33:59;;;;;;;9.50;5.50;;;18.20;99.90;;;;;;4922113;29;20434;-78
2021/06/23 08:36:27;;;;;;;7.03;4.20;;;18.30;99.90;;;;;;4922406;29;20806;-79
2021/06/23 08:38:56;;;;;;;6.37;5.10;;;18.30;99.90;;;;;;4904862;29;20913;-78
2021/06/23 08:41:26;;;;;;;9.80;5.80;;;18.30;99.90;;;;;;4921802;29;20456;-79
2021/06/23 08:43:56;;;;;;;6.63;4.97;;;18.30;99.90;;;;;;4923000;29;21001;-79
2021/06/23 08:46:24;;;;;;;6.53;4.30;;;18.30;99.90;;;;;;4920549;29;20484;-79
2021/06/23 08:48:54;;;;;;;7.22;4.90;;;18.30;99.90;;;;;;4904520;29;20420;-79
2021/06/23 08:51:25;;;;;;;6.83;4.90;;;18.30;99.90;;;;;;4919894;29;20618;-79
2021/06/23 08:53:53;;;;;;;6.03;4.30;;;18.40;99.90;;;;;;4921358;29;20543;-79
2021/06/23 08:56:21;;;;;;;6.90;4.23;;;18.30;99.90;;;;;;4919867;29;20459;-79
2021/06/23 08:58:49;;;;;;;8.20;4.50;;;18.30;99.90;;;;;;4904006;29;20559;-78
2021/06/23 09:01:19;;;;;;;7.70;4.20;;;18.30;99.90;;;;;;4903385;29;20463;-79
2021/06/23 09:04:01;;;;;;;10.80;4.57;;;18.40;99.90;;;;;;4904409;29;20303;-79
2021/06/23 09:06:43;;;;;;;4.93;4.30;;;18.50;99.90;;;;;;4921307;29;20477;-79
2021/06/23 09:09:23;;;;;;;4.70;3.97;;;18.60;99.90;;;;;;4903819;29;20528;-79
2021/06/23 09:11:53;;;;;;;5.10;4.13;;;18.50;99.90;;;;;;4919686;29;20478;-79
2021/06/23 09:14:23;;;;;;;6.23;4.80;;;18.60;99.90;;;;;;4903551;29;20459;-77
2021/06/23 09:17:06;;;;;;;5.57;5.07;;;18.60;99.90;;;;;;4901080;29;20877;-76
2021/06/23 09:19:54;;;;;;;7.30;3.93;;;18.60;99.90;;;;;;4917025;29;20563;-76
2021/06/23 09:22:40;;;;;;;8.70;5.00;;;18.70;99.90;;;;;;4917146;29;20463;-76
2021/06/23 09:25:26;;;;;;;9.83;5.27;;;18.70;99.90;;;;;;4900084;29;20456;-76
2021/06/23 09:27:57;;;;;;;8.50;6.07;;;18.80;99.90;;;;;;4915920;29;21085;-76
2021/06/23 09:30:32;;;;;;;8.13;6.10;;;18.90;99.90;;;;;;4900067;29;20572;-76
2021/06/23 09:33:10;;;;;;;5.60;5.07;;;18.90;99.90;;;;;;4917539;29;20828;-76
2021/06/23 09:35:40;;;;;;;7.17;5.20;;;18.90;99.90;;;;;;4917213;29;20471;-77
2021/06/23 09:38:42;;;;;;;5.70;4.73;;;18.90;99.90;;;;;;4900077;29;20436;-76
2021/06/23 09:41:23;;;;;;;5.53;5.00;;;18.90;99.90;;;;;;4915856;29;20454;-76
2021/06/23 09:44:03;;;;;;;8.37;4.70;;;19.00;99.90;;;;;;4900118;29;20462;-76
2021/06/23 09:46:36;;;;;;;7.20;5.07;;;18.90;99.90;;;;;;4915806;29;20450;-76
2021/06/23 09:49:12;;;;;;;5.80;5.20;;;19.00;99.90;;;;;;4915637;29;20486;-77
2021/06/23 09:51:47;;;;;;;7.13;5.33;;;19.00;99.90;;;;;;4900419;29;20482;-75
2021/06/23 09:54:17;;;;;;;9.93;6.07;;;18.90;99.90;;;;;;4901208;29;20495;-78
2021/06/23 09:56:56;;;;;;;7.17;5.60;;;19.00;99.90;;;;;;4903389;29;20199;-78
2021/06/23 09:59:33;;;;;;;9.87;6.20;;;18.90;99.90;;;;;;4915715;29;20960;-77
2021/06/23 10:02:02;;;;;;;9.63;5.97;;;18.90;99.90;;;;;;4900129;29;20500;-77
2021/06/23 10:04:34;;;;;;;8.77;6.57;;;18.80;99.90;;;;;;4916442;29;20491;-76
2021/06/23 10:07:02;;;;;;;9.10;6.07;;;18.90;99.90;;;;;;4899851;29;20454;-77
2021/06/23 10:09:32;;;;;;;10.03;6.60;;;18.90;99.90;;;;;;4899726;29;20516;-77
2021/06/23 10:12:06;;;;;;;6.50;5.80;;;18.90;99.90;;;;;;4899801;29;20476;-76
2021/06/23 10:14:40;;;;;;;11.70;6.60;;;18.90;99.90;;;;;;4915479;29;20518;-77
2021/06/23 10:17:09;;;;;;;8.47;6.00;;;18.90;99.90;;;;;;4899862;29;21044;-77
2021/06/23 10:19:42;;;;;;;7.53;6.77;;;18.90;99.90;;;;;;4915443;29;20843;-77
2021/06/23 10:22:14;;;;;;;7.50;6.60;;;19.00;99.90;;;;;;4900085;29;20466;-77
2021/06/23 10:24:57;;;;;;;8.87;6.33;;;19.00;99.90;;;;;;4916765;29;20440;-77
2021/06/23 10:27:26;;;;;;;8.10;6.00;;;19.10;99.90;;;;;;4899831;29;20443;-77
2021/06/23 10:29:58;;;;;;;8.20;6.23;;;19.10;99.90;;;;;;4916638;29;20487;-77
2021/06/23 10:32:27;;;;;;;7.33;6.67;;;19.20;99.90;;;;;;4916859;29;20460;-77
2021/06/23 10:34:57;;;;;;;8.37;6.40;;;19.20;99.90;;;;;;4903476;29;20866;-77
2021/06/23 10:37:27;;;;;;;8.93;7.33;;;19.30;99.90;;;;;;4903205;29;20825;-77
2021/06/23 10:39:56;;;;;;;10.80;8.00;;;19.30;99.90;;;;;;4918796;29;20479;-78
2021/06/23 10:42:26;;;;;;;7.10;6.33;;;19.30;99.90;;;;;;4920361;29;20452;-77
2021/06/23 10:44:55;;;;;;;7.10;6.50;;;19.40;99.90;;;;;;4918766;29;20449;-77
2021/06/23 10:47:32;;;;;;;9.50;6.60;;;19.50;99.90;;;;;;4918815;29;20446;-77
2021/06/23 10:50:02;;;;;;;6.73;6.23;;;19.50;99.90;;;;;;4903352;29;20513;-77
2021/06/23 10:52:40;;;;;;;6.80;6.13;;;19.60;99.90;;;;;;4902982;29;20466;-77
2021/06/23 10:55:39;;;;;;;6.57;5.90;;;19.70;99.90;;;;;;4902962;29;20501;-77
2021/06/23 10:58:10;;;;;;;7.10;5.53;;;19.80;99.90;;;;;;4919755;29;20456;-77
2021/06/23 11:00:40;;;;;;;7.80;6.03;;;19.90;99.90;;;;;;4919822;29;21015;-77
2021/06/23 11:03:13;;;;;;;6.67;6.07;;;19.90;99.90;;;;;;4918552;29;20486;-77
2021/06/23 11:05:48;;;;;;;7.10;5.67;;;20.00;99.90;;;;;;4903549;29;20451;-77
2021/06/23 11:08:34;;;;;;;7.75;6.43;;;20.00;99.90;;;;;;4917266;29;20505;-77
2021/06/23 11:11:05;;;;;;;7.20;6.60;;;20.10;99.10;;;;;;4902732;29;20198;-77
2021/06/23 11:13:35;;;;;;;7.30;6.40;;;20.10;99.10;;;;;;4919745;29;20437;-78
2021/06/23 11:16:04;;;;;;;8.90;6.40;;;20.10;99.10;;;;;;4918784;29;20445;-77
2021/06/23 11:18:35;;;;;;;14.30;8.00;;;20.20;99.20;;;;;;4918106;29;20839;-77
2021/06/23 11:21:19;;;;;;;6.63;5.90;;;20.30;99.30;;;;;;4918114;29;21056;-77
2021/06/23 11:23:53;;;;;;;7.90;7.00;;;20.30;99.20;;;;;;4919676;29;20526;-77
2021/06/23 11:26:50;;;;;;;6.23;5.13;;;20.40;99.20;;;;;;4918091;29;20503;-77
2021/06/23 11:29:35;;;;;;;7.40;4.77;;;20.50;99.10;;;;;;4902169;29;20481;-77
2021/06/23 11:32:09;;;;;;;7.77;5.10;;;20.60;99.00;;;;;;4918088;29;20454;-77
2021/06/23 11:34:54;;;;;;;6.70;5.90;;;20.60;98.90;;;;;;4917926;29;20453;-77
2021/06/23 11:37:36;;;;;;;7.50;5.70;;;20.60;98.80;;;;;;4919346;29;20492;-77
2021/06/23 11:40:17;;;;;;;7.13;5.93;;;20.60;98.70;;;;;;4917859;29;21104;-77
2021/06/23 11:42:46;;;;;;;6.63;6.03;;;20.60;98.50;;;;;;4902033;29;20872;-77
2021/06/23 11:45:17;;;;;;;5.90;5.30;;;20.60;98.50;;;;;;4918842;29;20456;-77
2021/06/23 11:47:46;;;;;;;6.83;6.07;;;20.70;98.40;;;;;;4901853;29;20488;-77
2021/06/23 11:50:14;;;;;;;11.20;6.17;;;20.70;98.40;;;;;;4917426;29;20484;-77
2021/06/23 11:52:44;;;;;;;8.10;6.27;;;20.70;98.30;;;;;;4918953;29;20494;-77
2021/06/23 11:55:23;;;;;;;6.60;5.87;;;20.70;98.30;;;;;;4901779;29;20478;-77
2021/06/23 11:57:54;;;;;;;7.20;6.45;;;20.70;98.20;;;;;;4901122;29;20458;-77
2021/06/23 12:00:23;;;;;;;7.80;5.57;;;20.90;97.80;;;;;;4901805;29;20244;-77
2021/06/23 12:02:51;;;;;;;7.80;5.00;;;20.90;97.70;;;;;;4901830;29;20569;-77
2021/06/23 12:05:20;;;;;;;7.00;6.23;;;21.00;97.80;;;;;;4901813;29;20504;-77
2021/06/23 12:07:52;;;;;;;7.43;5.47;;;21.00;97.80;;;;;;4902047;29;20949;-77
2021/06/23 12:10:21;;;;;;;10.53;6.13;;;21.10;97.70;;;;;;4918783;29;20246;-77
2021/06/23 12:12:50;;;;;;;6.30;5.17;;;21.10;97.50;;;;;;4918469;29;20450;-77
2021/06/23 12:15:20;;;;;;;6.70;5.10;;;21.20;97.50;;;;;;4917258;29;20469;-77
2021/06/23 13:07:55;;;;;;;6.23;5.30;;;21.90;96.80;;;;;;3271004;27;20830;-76
2021/06/23 13:10:24;;;;;;;14.03;6.33;;;21.90;96.10;;;;;;4897255;29;20532;-76
2021/06/23 13:12:52;;;;;;;5.67;4.93;;;21.90;96.20;;;;;;4881378;29;20552;-75
2021/06/23 13:15:21;;;;;;;5.40;4.30;;;21.80;96.50;;;;;;4898594;29;20482;-75
2021/06/23 13:17:51;;;;;;;5.83;5.23;;;21.70;96.30;;;;;;4898135;29;20448;-75
2021/06/23 13:20:24;;;;;;;7.37;6.23;;;21.70;96.30;;;;;;4898749;29;20801;-75
2021/06/23 13:22:53;;;;;;;8.13;6.13;;;21.70;96.30;;;;;;4898737;29;20453;-75
2021/06/23 13:25:24;;;;;;;6.57;5.87;;;21.60;96.30;;;;;;4881398;29;20467;-76
2021/06/23 13:27:53;;;;;;;6.60;5.90;;;21.50;96.30;;;;;;4898521;29;20457;-75
2021/06/23 13:30:22;;;;;;;5.53;5.03;;;21.40;96.30;;;;;;4898374;29;20917;-76
2021/06/23 13:32:50;;;;;;;7.53;6.30;;;21.40;96.40;;;;;;4898078;29;20460;-75
2021/06/23 13:35:20;;;;;;;6.27;5.30;;;21.30;96.40;;;;;;4879455;29;20437;-76
2021/06/23 13:37:52;;;;;;;9.10;5.10;;;21.30;96.40;;;;;;4878192;29;20453;-76
2021/06/23 13:40:23;;;;;;;5.50;5.00;;;21.30;96.40;;;;;;4879315;29;20651;-75
2021/06/23 13:42:52;;;;;;;5.60;4.20;;;21.20;96.30;;;;;;4879445;29;21026;-75
2021/06/23 13:45:21;;;;;;;5.40;5.00;;;21.20;96.60;;;;;;4879655;29;20523;-75
2021/06/23 13:47:51;;;;;;;5.57;5.07;;;21.20;96.30;;;;;;4877900;29;20457;-76
2021/06/23 13:50:21;;;;;;;7.97;7.17;;;21.10;96.30;;;;;;4879553;29;20514;-76
2021/06/23 13:52:51;;;;;;;5.90;5.40;;;21.20;96.30;;;;;;4879244;29;20453;-75
2021/06/23 13:55:26;;;;;;;9.50;5.40;;;21.20;96.00;;;;;;4879734;29;20298;-75
2021/06/23 13:57:59;;;;;;;5.90;4.63;;;21.10;96.00;;;;;;4879580;29;20443;-76
2021/06/23 14:00:36;;;;;;;5.20;4.67;;;21.10;96.10;;;;;;4879279;29;20465;-75
2021/06/23 14:03:05;;;;;;;5.90;5.30;;;21.10;96.00;;;;;;4878011;29;20492;-76
2021/06/23 14:05:34;;;;;;;5.88;4.78;;;21.00;96.00;;;;;;4876858;29;20450;-75
2021/06/23 14:08:04;;;;;;;6.70;4.80;;;21.10;95.70;;;;;;4880669;29;20558;-76
2021/06/23 14:10:33;;;;;;;5.13;4.63;;;21.10;95.70;;;;;;4883358;29;20874;-75
2021/06/23 14:13:03;;;;;;;4.50;4.07;;;21.00;95.70;;;;;;4883245;29;20443;-75
2021/06/23 14:15:31;;;;;;;4.90;4.20;;;21.00;95.80;;;;;;4883505;29;20432;-75
2021/06/23 14:18:01;;;;;;;6.40;4.40;;;20.90;95.80;;;;;;4882892;29;20999;-76
2021/06/23 14:20:29;;;;;;;6.30;5.70;;;20.90;95.90;;;;;;4882721;29;20478;-75
2021/06/23 14:22:59;;;;;;;6.80;4.67;;;20.90;95.90;;;;;;4866083;29;20456;-75
2021/06/23 14:25:28;;;;;;;5.43;4.93;;;20.80;95.90;;;;;;4866065;29;20469;-75
2021/06/23 14:27:57;;;;;;;6.30;4.40;;;20.80;95.90;;;;;;4883029;29;20943;-76
2021/06/23 14:30:27;;;;;;;5.13;4.60;;;20.80;95.90;;;;;;4882516;29;20488;-76
2021/06/23 14:32:55;;;;;;;7.40;5.60;;;20.80;96.00;;;;;;4881319;29;20454;-76
2021/06/23 14:35:24;;;;;;;6.23;4.70;;;20.80;96.00;;;;;;4881642;29;20457;-76
2021/06/23 14:37:54;;;;;;;5.63;4.87;;;20.80;96.10;;;;;;4882726;29;20485;-76
2021/06/23 14:40:23;;;;;;;6.00;4.83;;;20.90;96.10;;;;;;4881258;29;20961;-76
2021/06/23 14:42:56;;;;;;;5.47;4.10;;;20.90;96.00;;;;;;4882797;29;20956;-76
2021/06/23 14:45:27;;;;;;;6.13;3.90;;;20.90;95.90;;;;;;4881248;29;20432;-76
2021/06/23 14:47:55;;;;;;;5.20;4.70;;;20.90;96.00;;;;;;4882673;29;20440;-75
2021/06/23 14:50:24;;;;;;;5.40;4.90;;;21.00;96.00;;;;;;4869259;29;20469;-75
2021/06/23 14:52:53;;;;;;;8.50;5.33;;;21.10;96.00;;;;;;4882541;29;20752;-75
2021/06/23 14:55:24;;;;;;;6.60;5.90;;;21.00;95.90;;;;;;4882483;29;20459;-76
2021/06/23 14:57:53;;;;;;;9.00;5.43;;;21.00;96.00;;;;;;4882139;29;20452;-76
2021/06/23 15:00:24;;;;;;;6.47;5.93;;;20.90;96.10;;;;;;4882598;29;20478;-76
2021/06/23 15:02:54;;;;;;;8.33;5.57;;;20.90;96.20;;;;;;4882224;29;20495;-76
2021/06/23 15:05:23;;;;;;;8.17;6.00;;;20.80;96.20;;;;;;4882225;29;20454;-76
2021/06/23 15:07:52;;;;;;;5.97;5.47;;;20.70;96.30;;;;;;4881905;29;21006;-76
2021/06/23 15:10:20;;;;;;;8.97;5.33;;;20.70;96.30;;;;;;4881762;29;20561;-76
2021/06/23 15:12:49;;;;;;;5.57;5.07;;;20.70;96.40;;;;;;4882266;29;20540;-76
2021/06/23 15:15:17;;;;;;;5.53;5.03;;;20.60;96.40;;;;;;4882040;29;20449;-75
2021/06/23 15:17:46;;;;;;;7.13;5.53;;;20.60;96.50;;;;;;4881555;29;20537;-76
2021/06/23 15:20:18;;;;;;;11.07;6.10;;;20.60;96.50;;;;;;4881720;29;20853;-76
2021/06/23 15:22:47;;;;;;;8.70;5.50;;;20.60;96.50;;;;;;4881381;29;20511;-76
2021/06/23 15:25:15;;;;;;;7.43;6.47;;;20.60;96.50;;;;;;4881250;29;20475;-75
2021/06/23 15:27:44;;;;;;;7.53;6.77;;;20.50;96.50;;;;;;4881892;29;20476;-76
2021/06/23 15:30:13;;;;;;;6.93;6.00;;;20.50;96.60;;;;;;4881279;29;20474;-75
2021/06/23 15:32:42;;;;;;;6.20;4.80;;;20.40;96.60;;;;;;4881942;29;20476;-76